sensor_id;sensor_type;location;lat;lon;timestamp;P1;durP1;ratioP1;P2;durP2;ratioP2
12818;SDS011;6474;53.474;9.894;2022-11-25T00:01:03;2.50;;;2.40;;
12818;SDS011;6474;53.474;9.894;2022-11-25T00:03:32;2.03;;;2.00;;
12818;SDS011;6474;53.474;9.894;2022-11-25T00:06:08;2.70;;;2.57;;
12818;SDS011;6474;53.474;9.894;2022-11-25T00:08:37;2.23;;;2.07;;
12818;SDS011;6474;53.474;9.894;2022-11-25T00:11:05;2.67;;;1.73;;
12818;SDS011;6474;53.474;9.894;2022-11-25T00:13:34;2.77;;;2.53;;
12818;SDS011;6474;53.474;9.894;2022-11-25T00:16:04;2.70;;;2.60;;
12818;SDS011;6474;53.474;9.894;2022-11-25T00:18:34;4.13;;;1.87;;
12818;SDS011;6474;53.474;9.894;2022-11-25T00:21:04;3.07;;;2.53;;
12818;SDS011;6474;53.474;9.894;2022-11-25T00:23:33;10.33;;;3.10;;
12818;SDS011;6474;53.474;9.894;2022-11-25T00:26:06;3.67;;;2.87;;
12818;SDS011;6474;53.474;9.894;2022-11-25T00:28:34;2.20;;;2.10;;
12818;SDS011;6474;53.474;9.894;2022-11-25T00:31:04;3.17;;;2.33;;
12818;SDS011;6474;53.474;9.894;2022-11-25T00:33:33;6.33;;;2.80;;
12818;SDS011;6474;53.474;9.894;2022-11-25T00:36:01;2.53;;;2.33;;
12818;SDS011;6474;53.474;9.894;2022-11-25T00:38:30;3.53;;;3.23;;
12818;SDS011;6474;53.474;9.894;2022-11-25T00:40:58;7.60;;;2.63;;
12818;SDS011;6474;53.474;9.894;2022-11-25T00:43:43;2.97;;;2.00;;
12818;SDS011;6474;53.474;9.894;2022-11-25T00:46:30;2.57;;;2.37;;
12818;SDS011;6474;53.474;9.894;2022-11-25T00:48:57;2.57;;;2.40;;
12818;SDS011;6474;53.474;9.894;2022-11-25T00:51:25;2.83;;;2.63;;
12818;SDS011;6474;53.474;9.894;2022-11-25T00:53:53;3.17;;;2.90;;
12818;SDS011;6474;53.474;9.894;2022-11-25T00:56:24;3.60;;;2.63;;
12818;SDS011;6474;53.474;9.894;2022-11-25T00:58:55;2.83;;;2.70;;
12818;SDS011;6474;53.474;9.894;2022-11-25T01:01:23;3.83;;;3.50;;
12818;SDS011;6474;53.474;9.894;2022-11-25T01:03:53;7.50;;;3.53;;
12818;SDS011;6474;53.474;9.894;2022-11-25T01:06:21;6.27;;;2.87;;
12818;SDS011;6474;53.474;9.894;2022-11-25T01:08:49;3.97;;;3.27;;
12818;SDS011;6474;53.474;9.894;2022-11-25T01:11:18;7.17;;;3.37;;
12818;SDS011;6474;53.474;9.894;2022-11-25T01:13:47;4.17;;;2.93;;
12818;SDS011;6474;53.474;9.894;2022-11-25T01:16:16;2.90;;;2.70;;
12818;SDS011;6474;53.474;9.894;2022-11-25T01:18:45;3.23;;;3.00;;
12818;SDS011;6474;53.474;9.894;2022-11-25T01:21:15;3.90;;;3.60;;
12818;SDS011;6474;53.474;9.894;2022-11-25T01:23:44;4.23;;;3.83;;
12818;SDS011;6474;53.474;9.894;2022-11-25T01:26:14;3.30;;;3.17;;
12818;SDS011;6474;53.474;9.894;2022-11-25T01:28:44;16.53;;;2.57;;
12818;SDS011;6474;53.474;9.894;2022-11-25T01:31:12;3.17;;;2.40;;
12818;SDS011;6474;53.474;9.894;2022-11-25T01:33:42;6.27;;;4.27;;
12818;SDS011;6474;53.474;9.894;2022-11-25T01:36:11;8.40;;;2.73;;
12818;SDS011;6474;53.474;9.894;2022-11-25T01:38:42;2.67;;;2.47;;
12818;SDS011;6474;53.474;9.894;2022-11-25T01:41:11;6.03;;;3.30;;
12818;SDS011;6474;53.474;9.894;2022-11-25T01:43:40;2.53;;;2.43;;
12818;SDS011;6474;53.474;9.894;2022-11-25T01:46:18;2.83;;;2.67;;
12818;SDS011;6474;53.474;9.894;2022-11-25T01:48:51;5.77;;;3.67;;
12818;SDS011;6474;53.474;9.894;2022-11-25T01:51:23;2.33;;;2.23;;
12818;SDS011;6474;53.474;9.894;2022-11-25T01:53:55;3.63;;;3.33;;
12818;SDS011;6474;53.474;9.894;2022-11-25T01:56:25;3.13;;;2.90;;
12818;SDS011;6474;53.474;9.894;2022-11-25T01:58:57;3.67;;;3.37;;
12818;SDS011;6474;53.474;9.894;2022-11-25T02:01:25;2.67;;;2.47;;
12818;SDS011;6474;53.474;9.894;2022-11-25T02:03:53;3.47;;;2.30;;
12818;SDS011;6474;53.474;9.894;2022-11-25T02:06:24;3.07;;;2.77;;
12818;SDS011;6474;53.474;9.894;2022-11-25T02:08:57;3.07;;;2.20;;
12818;SDS011;6474;53.474;9.894;2022-11-25T02:11:29;3.60;;;2.67;;
12818;SDS011;6474;53.474;9.894;2022-11-25T02:13:58;2.73;;;2.20;;
12818;SDS011;6474;53.474;9.894;2022-11-25T02:16:26;5.83;;;2.77;;
12818;SDS011;6474;53.474;9.894;2022-11-25T02:18:54;3.07;;;2.40;;
12818;SDS011;6474;53.474;9.894;2022-11-25T02:21:23;3.07;;;2.50;;
12818;SDS011;6474;53.474;9.894;2022-11-25T02:24:00;3.07;;;2.93;;
12818;SDS011;6474;53.474;9.894;2022-11-25T02:26:34;3.17;;;2.90;;
12818;SDS011;6474;53.474;9.894;2022-11-25T02:29:02;2.10;;;2.00;;
12818;SDS011;6474;53.474;9.894;2022-11-25T02:31:30;2.40;;;2.30;;
12818;SDS011;6474;53.474;9.894;2022-11-25T02:33:57;4.20;;;3.57;;
12818;SDS011;6474;53.474;9.894;2022-11-25T02:36:25;3.17;;;2.87;;
12818;SDS011;6474;53.474;9.894;2022-11-25T02:38:53;3.70;;;2.57;;
12818;SDS011;6474;53.474;9.894;2022-11-25T02:41:23;3.93;;;2.73;;
12818;SDS011;6474;53.474;9.894;2022-11-25T02:43:58;3.07;;;2.87;;
12818;SDS011;6474;53.474;9.894;2022-11-25T02:46:27;3.10;;;2.57;;
12818;SDS011;6474;53.474;9.894;2022-11-25T02:48:56;2.77;;;2.57;;
12818;SDS011;6474;53.474;9.894;2022-11-25T02:51:35;2.47;;;2.30;;
12818;SDS011;6474;53.474;9.894;2022-11-25T02:54:04;2.67;;;2.57;;
12818;SDS011;6474;53.474;9.894;2022-11-25T02:56:33;2.53;;;2.43;;
12818;SDS011;6474;53.474;9.894;2022-11-25T02:59:03;3.17;;;2.93;;
12818;SDS011;6474;53.474;9.894;2022-11-25T03:01:34;4.10;;;2.57;;
12818;SDS011;6474;53.474;9.894;2022-11-25T03:04:03;2.60;;;2.40;;
12818;SDS011;6474;53.474;9.894;2022-11-25T03:06:32;2.13;;;2.03;;
12818;SDS011;6474;53.474;9.894;2022-11-25T03:08:59;3.30;;;2.80;;
12818;SDS011;6474;53.474;9.894;2022-11-25T03:11:29;2.20;;;2.10;;
12818;SDS011;6474;53.474;9.894;2022-11-25T03:14:15;2.53;;;2.20;;
12818;SDS011;6474;53.474;9.894;2022-11-25T03:16:43;3.40;;;3.03;;
12818;SDS011;6474;53.474;9.894;2022-11-25T03:19:11;2.33;;;2.20;;
12818;SDS011;6474;53.474;9.894;2022-11-25T03:21:39;2.23;;;2.13;;
12818;SDS011;6474;53.474;9.894;2022-11-25T03:24:07;2.07;;;1.97;;
12818;SDS011;6474;53.474;9.894;2022-11-25T03:26:35;4.83;;;2.70;;
12818;SDS011;6474;53.474;9.894;2022-11-25T03:29:02;2.37;;;2.20;;
12818;SDS011;6474;53.474;9.894;2022-11-25T03:31:32;2.60;;;2.43;;
12818;SDS011;6474;53.474;9.894;2022-11-25T03:33:59;1.97;;;1.93;;
12818;SDS011;6474;53.474;9.894;2022-11-25T03:36:27;2.83;;;2.67;;
12818;SDS011;6474;53.474;9.894;2022-11-25T03:38:55;2.03;;;1.93;;
12818;SDS011;6474;53.474;9.894;2022-11-25T03:41:23;2.33;;;2.20;;
12818;SDS011;6474;53.474;9.894;2022-11-25T03:43:51;3.80;;;3.03;;
12818;SDS011;6474;53.474;9.894;2022-11-25T03:46:18;2.83;;;2.73;;
12818;SDS011;6474;53.474;9.894;2022-11-25T03:48:48;5.67;;;3.07;;
12818;SDS011;6474;53.474;9.894;2022-11-25T03:51:15;2.17;;;1.97;;
12818;SDS011;6474;53.474;9.894;2022-11-25T03:53:43;3.50;;;2.33;;
12818;SDS011;6474;53.474;9.894;2022-11-25T03:56:11;2.23;;;2.13;;
12818;SDS011;6474;53.474;9.894;2022-11-25T03:58:39;3.27;;;2.97;;
12818;SDS011;6474;53.474;9.894;2022-11-25T04:01:07;2.20;;;2.00;;
12818;SDS011;6474;53.474;9.894;2022-11-25T04:03:35;2.60;;;2.43;;
12818;SDS011;6474;53.474;9.894;2022-11-25T04:06:04;10.07;;;2.60;;
12818;SDS011;6474;53.474;9.894;2022-11-25T04:08:32;5.57;;;2.60;;
12818;SDS011;6474;53.474;9.894;2022-11-25T04:11:01;2.70;;;2.13;;
12818;SDS011;6474;53.474;9.894;2022-11-25T04:13:29;1.70;;;1.60;;
12818;SDS011;6474;53.474;9.894;2022-11-25T04:15:56;2.10;;;2.00;;
12818;SDS011;6474;53.474;9.894;2022-11-25T04:18:24;2.43;;;2.00;;
12818;SDS011;6474;53.474;9.894;2022-11-25T04:20:52;1.40;;;1.40;;
12818;SDS011;6474;53.474;9.894;2022-11-25T04:23:21;2.30;;;2.10;;
12818;SDS011;6474;53.474;9.894;2022-11-25T04:25:49;2.93;;;2.73;;
12818;SDS011;6474;53.474;9.894;2022-11-25T04:28:17;4.10;;;2.60;;
12818;SDS011;6474;53.474;9.894;2022-11-25T04:30:44;1.97;;;1.97;;
12818;SDS011;6474;53.474;9.894;2022-11-25T04:33:12;6.97;;;2.30;;
12818;SDS011;6474;53.474;9.894;2022-11-25T04:35:40;2.77;;;2.50;;
12818;SDS011;6474;53.474;9.894;2022-11-25T04:38:08;1.67;;;1.67;;
12818;SDS011;6474;53.474;9.894;2022-11-25T04:40:37;2.57;;;2.37;;
12818;SDS011;6474;53.474;9.894;2022-11-25T04:43:05;3.30;;;2.37;;
12818;SDS011;6474;53.474;9.894;2022-11-25T04:45:36;2.37;;;1.77;;
12818;SDS011;6474;53.474;9.894;2022-11-25T04:48:24;1.57;;;1.57;;
12818;SDS011;6474;53.474;9.894;2022-11-25T04:50:52;2.40;;;2.20;;
12818;SDS011;6474;53.474;9.894;2022-11-25T04:53:19;1.40;;;1.40;;
12818;SDS011;6474;53.474;9.894;2022-11-25T04:55:49;5.83;;;2.07;;
12818;SDS011;6474;53.474;9.894;2022-11-25T04:58:16;2.50;;;2.30;;
12818;SDS011;6474;53.474;9.894;2022-11-25T05:01:04;3.20;;;2.27;;
12818;SDS011;6474;53.474;9.894;2022-11-25T05:03:31;2.70;;;2.50;;
12818;SDS011;6474;53.474;9.894;2022-11-25T05:06:03;1.97;;;1.80;;
12818;SDS011;6474;53.474;9.894;2022-11-25T05:08:33;10.50;;;2.33;;
12818;SDS011;6474;53.474;9.894;2022-11-25T05:11:02;2.17;;;1.97;;
12818;SDS011;6474;53.474;9.894;2022-11-25T05:13:30;1.77;;;1.73;;
12818;SDS011;6474;53.474;9.894;2022-11-25T05:15:58;2.37;;;2.20;;
12818;SDS011;6474;53.474;9.894;2022-11-25T05:18:26;2.40;;;2.27;;
12818;SDS011;6474;53.474;9.894;2022-11-25T05:20:54;3.17;;;1.87;;
12818;SDS011;6474;53.474;9.894;2022-11-25T05:23:22;21.97;;;4.47;;
12818;SDS011;6474;53.474;9.894;2022-11-25T05:25:49;9.13;;;2.70;;
12818;SDS011;6474;53.474;9.894;2022-11-25T05:28:18;3.27;;;2.17;;
12818;SDS011;6474;53.474;9.894;2022-11-25T05:30:46;6.47;;;2.57;;
12818;SDS011;6474;53.474;9.894;2022-11-25T05:33:20;2.27;;;1.90;;
12818;SDS011;6474;53.474;9.894;2022-11-25T05:35:52;3.30;;;3.10;;
12818;SDS011;6474;53.474;9.894;2022-11-25T05:38:21;15.70;;;2.53;;
12818;SDS011;6474;53.474;9.894;2022-11-25T05:40:49;3.73;;;1.53;;
12818;SDS011;6474;53.474;9.894;2022-11-25T05:43:18;7.70;;;2.77;;
12818;SDS011;6474;53.474;9.894;2022-11-25T05:45:46;2.10;;;2.00;;
12818;SDS011;6474;53.474;9.894;2022-11-25T05:48:14;2.60;;;1.90;;
12818;SDS011;6474;53.474;9.894;2022-11-25T05:50:41;5.07;;;2.57;;
12818;SDS011;6474;53.474;9.894;2022-11-25T05:53:09;2.50;;;1.87;;
12818;SDS011;6474;53.474;9.894;2022-11-25T05:55:37;4.10;;;1.73;;
12818;SDS011;6474;53.474;9.894;2022-11-25T05:58:05;1.67;;;1.57;;
12818;SDS011;6474;53.474;9.894;2022-11-25T06:00:34;1.37;;;1.37;;
12818;SDS011;6474;53.474;9.894;2022-11-25T06:03:02;3.63;;;1.77;;
12818;SDS011;6474;53.474;9.894;2022-11-25T06:05:33;8.20;;;2.27;;
12818;SDS011;6474;53.474;9.894;2022-11-25T06:08:01;2.13;;;1.20;;
12818;SDS011;6474;53.474;9.894;2022-11-25T06:10:29;5.27;;;1.67;;
12818;SDS011;6474;53.474;9.894;2022-11-25T06:12:57;1.83;;;1.37;;
12818;SDS011;6474;53.474;9.894;2022-11-25T06:15:24;1.83;;;1.73;;
12818;SDS011;6474;53.474;9.894;2022-11-25T06:17:54;9.40;;;2.50;;
12818;SDS011;6474;53.474;9.894;2022-11-25T06:20:21;4.00;;;1.80;;
12818;SDS011;6474;53.474;9.894;2022-11-25T06:22:49;3.57;;;1.53;;
12818;SDS011;6474;53.474;9.894;2022-11-25T06:25:17;1.57;;;1.50;;
12818;SDS011;6474;53.474;9.894;2022-11-25T06:27:48;1.60;;;1.50;;
12818;SDS011;6474;53.474;9.894;2022-11-25T06:30:36;5.00;;;2.23;;
12818;SDS011;6474;53.474;9.894;2022-11-25T06:33:05;2.10;;;1.90;;
12818;SDS011;6474;53.474;9.894;2022-11-25T06:35:33;2.97;;;2.77;;
12818;SDS011;6474;53.474;9.894;2022-11-25T06:38:01;6.20;;;1.73;;
12818;SDS011;6474;53.474;9.894;2022-11-25T06:40:29;2.23;;;2.10;;
12818;SDS011;6474;53.474;9.894;2022-11-25T06:42:57;7.70;;;2.43;;
12818;SDS011;6474;53.474;9.894;2022-11-25T06:45:28;1.30;;;1.30;;
12818;SDS011;6474;53.474;9.894;2022-11-25T06:47:56;1.50;;;1.40;;
12818;SDS011;6474;53.474;9.894;2022-11-25T06:50:25;2.67;;;1.60;;
12818;SDS011;6474;53.474;9.894;2022-11-25T06:52:53;1.77;;;1.67;;
12818;SDS011;6474;53.474;9.894;2022-11-25T06:55:22;2.83;;;1.17;;
12818;SDS011;6474;53.474;9.894;2022-11-25T06:57:50;2.03;;;1.93;;
12818;SDS011;6474;53.474;9.894;2022-11-25T07:00:38;1.83;;;1.73;;
12818;SDS011;6474;53.474;9.894;2022-11-25T07:03:06;3.57;;;1.60;;
12818;SDS011;6474;53.474;9.894;2022-11-25T07:05:35;3.13;;;1.50;;
12818;SDS011;6474;53.474;9.894;2022-11-25T07:08:03;1.90;;;1.30;;
12818;SDS011;6474;53.474;9.894;2022-11-25T07:10:32;7.20;;;1.73;;
12818;SDS011;6474;53.474;9.894;2022-11-25T07:13:00;3.33;;;1.67;;
12818;SDS011;6474;53.474;9.894;2022-11-25T07:15:28;1.27;;;1.20;;
12818;SDS011;6474;53.474;9.894;2022-11-25T07:17:56;1.43;;;1.40;;
12818;SDS011;6474;53.474;9.894;2022-11-25T07:20:23;1.27;;;1.27;;
12818;SDS011;6474;53.474;9.894;2022-11-25T07:22:54;1.27;;;1.07;;
12818;SDS011;6474;53.474;9.894;2022-11-25T07:25:22;1.93;;;1.83;;
12818;SDS011;6474;53.474;9.894;2022-11-25T07:27:55;3.70;;;1.07;;
12818;SDS011;6474;53.474;9.894;2022-11-25T07:30:23;1.27;;;1.27;;
12818;SDS011;6474;53.474;9.894;2022-11-25T07:33:11;1.90;;;1.63;;
12818;SDS011;6474;53.474;9.894;2022-11-25T07:35:39;1.57;;;1.57;;
12818;SDS011;6474;53.474;9.894;2022-11-25T07:38:08;1.50;;;1.27;;
12818;SDS011;6474;53.474;9.894;2022-11-25T07:40:36;1.43;;;1.30;;
12818;SDS011;6474;53.474;9.894;2022-11-25T07:43:03;4.53;;;1.27;;
12818;SDS011;6474;53.474;9.894;2022-11-25T07:45:31;0.90;;;0.90;;
12818;SDS011;6474;53.474;9.894;2022-11-25T07:47:59;2.60;;;1.50;;
12818;SDS011;6474;53.474;9.894;2022-11-25T07:50:28;1.30;;;1.07;;
12818;SDS011;6474;53.474;9.894;2022-11-25T07:52:56;2.10;;;1.10;;
12818;SDS011;6474;53.474;9.894;2022-11-25T07:55:25;4.43;;;1.27;;
12818;SDS011;6474;53.474;9.894;2022-11-25T07:57:53;1.63;;;1.53;;
12818;SDS011;6474;53.474;9.894;2022-11-25T08:00:21;5.70;;;1.80;;
12818;SDS011;6474;53.474;9.894;2022-11-25T08:02:49;1.10;;;1.10;;
12818;SDS011;6474;53.474;9.894;2022-11-25T08:05:18;1.20;;;1.20;;
12818;SDS011;6474;53.474;9.894;2022-11-25T08:07:47;3.33;;;1.83;;
12818;SDS011;6474;53.474;9.894;2022-11-25T08:10:15;1.60;;;1.50;;
12818;SDS011;6474;53.474;9.894;2022-11-25T08:12:44;1.33;;;1.23;;
12818;SDS011;6474;53.474;9.894;2022-11-25T08:15:12;1.40;;;1.30;;
12818;SDS011;6474;53.474;9.894;2022-11-25T08:17:39;1.40;;;1.40;;
12818;SDS011;6474;53.474;9.894;2022-11-25T08:20:07;1.17;;;1.17;;
12818;SDS011;6474;53.474;9.894;2022-11-25T08:22:35;2.50;;;1.23;;
12818;SDS011;6474;53.474;9.894;2022-11-25T08:25:04;1.77;;;1.70;;
12818;SDS011;6474;53.474;9.894;2022-11-25T08:27:32;2.30;;;2.03;;
12818;SDS011;6474;53.474;9.894;2022-11-25T08:30:01;6.80;;;1.40;;
12818;SDS011;6474;53.474;9.894;2022-11-25T08:32:29;1.10;;;1.10;;
12818;SDS011;6474;53.474;9.894;2022-11-25T08:34:57;4.47;;;2.00;;
12818;SDS011;6474;53.474;9.894;2022-11-25T08:37:25;4.47;;;2.70;;
12818;SDS011;6474;53.474;9.894;2022-11-25T08:39:53;2.27;;;2.17;;
12818;SDS011;6474;53.474;9.894;2022-11-25T08:42:21;1.70;;;0.90;;
12818;SDS011;6474;53.474;9.894;2022-11-25T08:44:53;1.53;;;1.53;;
12818;SDS011;6474;53.474;9.894;2022-11-25T08:47:23;2.03;;;1.53;;
12818;SDS011;6474;53.474;9.894;2022-11-25T08:49:51;3.13;;;1.67;;
12818;SDS011;6474;53.474;9.894;2022-11-25T08:52:19;3.03;;;1.43;;
12818;SDS011;6474;53.474;9.894;2022-11-25T08:54:48;2.10;;;1.90;;
12818;SDS011;6474;53.474;9.894;2022-11-25T08:57:15;1.83;;;1.43;;
12818;SDS011;6474;53.474;9.894;2022-11-25T08:59:43;2.40;;;1.20;;
12818;SDS011;6474;53.474;9.894;2022-11-25T09:02:12;1.23;;;1.23;;
12818;SDS011;6474;53.474;9.894;2022-11-25T09:04:43;1.57;;;1.40;;
12818;SDS011;6474;53.474;9.894;2022-11-25T09:07:11;2.40;;;1.43;;
12818;SDS011;6474;53.474;9.894;2022-11-25T09:09:39;7.13;;;1.70;;
12818;SDS011;6474;53.474;9.894;2022-11-25T09:12:07;1.20;;;1.13;;
12818;SDS011;6474;53.474;9.894;2022-11-25T09:14:35;1.60;;;1.50;;
12818;SDS011;6474;53.474;9.894;2022-11-25T09:17:06;5.60;;;1.80;;
12818;SDS011;6474;53.474;9.894;2022-11-25T09:19:35;1.40;;;1.40;;
12818;SDS011;6474;53.474;9.894;2022-11-25T09:22:04;6.73;;;0.87;;
12818;SDS011;6474;53.474;9.894;2022-11-25T09:24:33;1.60;;;1.30;;
12818;SDS011;6474;53.474;9.894;2022-11-25T09:27:01;3.80;;;1.50;;
12818;SDS011;6474;53.474;9.894;2022-11-25T09:29:29;1.73;;;1.63;;
12818;SDS011;6474;53.474;9.894;2022-11-25T09:31:56;4.40;;;1.57;;
12818;SDS011;6474;53.474;9.894;2022-11-25T09:34:25;3.73;;;1.30;;
12818;SDS011;6474;53.474;9.894;2022-11-25T09:36:52;7.83;;;1.97;;
12818;SDS011;6474;53.474;9.894;2022-11-25T09:39:21;7.63;;;1.73;;
12818;SDS011;6474;53.474;9.894;2022-11-25T09:41:59;3.97;;;1.97;;
12818;SDS011;6474;53.474;9.894;2022-11-25T09:44:56;1.47;;;1.47;;
12818;SDS011;6474;53.474;9.894;2022-11-25T09:47:50;1.00;;;1.00;;
12818;SDS011;6474;53.474;9.894;2022-11-25T09:50:28;8.43;;;1.50;;
12818;SDS011;6474;53.474;9.894;2022-11-25T09:53:10;6.00;;;1.60;;
12818;SDS011;6474;53.474;9.894;2022-11-25T09:55:49;8.80;;;1.77;;
12818;SDS011;6474;53.474;9.894;2022-11-25T09:58:28;2.93;;;1.13;;
12818;SDS011;6474;53.474;9.894;2022-11-25T10:01:00;0.80;;;0.80;;
12818;SDS011;6474;53.474;9.894;2022-11-25T10:03:33;1.20;;;1.20;;
12818;SDS011;6474;53.474;9.894;2022-11-25T10:06:05;8.80;;;1.80;;
12818;SDS011;6474;53.474;9.894;2022-11-25T10:08:37;2.17;;;1.20;;
12818;SDS011;6474;53.474;9.894;2022-11-25T10:11:11;1.47;;;1.37;;
12818;SDS011;6474;53.474;9.894;2022-11-25T10:13:48;1.83;;;1.40;;
12818;SDS011;6474;53.474;9.894;2022-11-25T10:16:25;1.03;;;1.03;;
12818;SDS011;6474;53.474;9.894;2022-11-25T10:19:02;4.20;;;1.33;;
12818;SDS011;6474;53.474;9.894;2022-11-25T10:21:38;1.07;;;1.07;;
12818;SDS011;6474;53.474;9.894;2022-11-25T10:24:08;1.00;;;0.90;;
12818;SDS011;6474;53.474;9.894;2022-11-25T10:26:42;1.60;;;1.50;;
12818;SDS011;6474;53.474;9.894;2022-11-25T10:29:19;4.77;;;1.27;;
12818;SDS011;6474;53.474;9.894;2022-11-25T10:31:50;5.37;;;2.00;;
12818;SDS011;6474;53.474;9.894;2022-11-25T10:34:25;5.23;;;1.47;;
12818;SDS011;6474;53.474;9.894;2022-11-25T10:37:01;3.07;;;1.57;;
12818;SDS011;6474;53.474;9.894;2022-11-25T10:39:33;1.17;;;1.17;;
12818;SDS011;6474;53.474;9.894;2022-11-25T10:42:03;1.97;;;1.50;;
12818;SDS011;6474;53.474;9.894;2022-11-25T10:44:34;5.50;;;1.60;;
12818;SDS011;6474;53.474;9.894;2022-11-25T10:47:07;2.20;;;1.30;;
12818;SDS011;6474;53.474;9.894;2022-11-25T10:49:48;3.50;;;1.63;;
12818;SDS011;6474;53.474;9.894;2022-11-25T10:52:27;1.37;;;1.37;;
12818;SDS011;6474;53.474;9.894;2022-11-25T10:54:57;1.90;;;1.60;;
12818;SDS011;6474;53.474;9.894;2022-11-25T10:57:37;1.30;;;1.20;;
12818;SDS011;6474;53.474;9.894;2022-11-25T11:00:06;7.43;;;2.30;;
12818;SDS011;6474;53.474;9.894;2022-11-25T11:02:50;2.33;;;1.93;;
12818;SDS011;6474;53.474;9.894;2022-11-25T11:05:18;6.90;;;2.87;;
12818;SDS011;6474;53.474;9.894;2022-11-25T11:08:05;1.70;;;1.70;;
12818;SDS011;6474;53.474;9.894;2022-11-25T11:10:45;5.67;;;2.53;;
12818;SDS011;6474;53.474;9.894;2022-11-25T11:13:23;4.10;;;2.57;;
12818;SDS011;6474;53.474;9.894;2022-11-25T11:15:52;2.03;;;1.77;;
12818;SDS011;6474;53.474;9.894;2022-11-25T11:18:22;1.93;;;1.80;;
12818;SDS011;6474;53.474;9.894;2022-11-25T11:20:53;2.23;;;2.03;;
12818;SDS011;6474;53.474;9.894;2022-11-25T11:23:22;1.93;;;1.67;;
12818;SDS011;6474;53.474;9.894;2022-11-25T11:25:55;2.20;;;2.10;;
12818;SDS011;6474;53.474;9.894;2022-11-25T11:28:28;4.10;;;2.57;;
12818;SDS011;6474;53.474;9.894;2022-11-25T11:31:05;1.90;;;1.87;;
12818;SDS011;6474;53.474;9.894;2022-11-25T11:33:36;4.43;;;1.70;;
12818;SDS011;6474;53.474;9.894;2022-11-25T11:36:15;4.17;;;1.87;;
12818;SDS011;6474;53.474;9.894;2022-11-25T11:38:54;2.97;;;1.83;;
12818;SDS011;6474;53.474;9.894;2022-11-25T11:41:29;2.20;;;2.10;;
12818;SDS011;6474;53.474;9.894;2022-11-25T11:44:10;2.90;;;2.43;;
12818;SDS011;6474;53.474;9.894;2022-11-25T11:46:50;7.87;;;2.97;;
12818;SDS011;6474;53.474;9.894;2022-11-25T11:49:35;3.03;;;2.77;;
12818;SDS011;6474;53.474;9.894;2022-11-25T11:52:30;10.10;;;4.40;;
12818;SDS011;6474;53.474;9.894;2022-11-25T11:55:14;14.43;;;5.07;;
12818;SDS011;6474;53.474;9.894;2022-11-25T11:57:52;25.33;;;8.37;;
12818;SDS011;6474;53.474;9.894;2022-11-25T12:00:31;13.37;;;6.73;;
12818;SDS011;6474;53.474;9.894;2022-11-25T12:03:09;4.37;;;3.90;;
12818;SDS011;6474;53.474;9.894;2022-11-25T12:05:40;5.13;;;2.30;;
12818;SDS011;6474;53.474;9.894;2022-11-25T12:08:09;7.80;;;2.60;;
12818;SDS011;6474;53.474;9.894;2022-11-25T12:10:42;2.97;;;2.60;;
12818;SDS011;6474;53.474;9.894;2022-11-25T12:13:15;3.37;;;3.07;;
12818;SDS011;6474;53.474;9.894;2022-11-25T12:15:51;3.50;;;3.17;;
12818;SDS011;6474;53.474;9.894;2022-11-25T12:18:27;3.33;;;3.03;;
12818;SDS011;6474;53.474;9.894;2022-11-25T12:21:01;5.40;;;2.80;;
12818;SDS011;6474;53.474;9.894;2022-11-25T12:23:35;11.97;;;3.30;;
12818;SDS011;6474;53.474;9.894;2022-11-25T12:26:10;8.10;;;2.90;;
12818;SDS011;6474;53.474;9.894;2022-11-25T12:28:42;5.23;;;2.63;;
12818;SDS011;6474;53.474;9.894;2022-11-25T12:31:16;3.33;;;3.07;;
12818;SDS011;6474;53.474;9.894;2022-11-25T12:33:56;3.33;;;3.10;;
12818;SDS011;6474;53.474;9.894;2022-11-25T12:36:32;3.97;;;3.53;;
12818;SDS011;6474;53.474;9.894;2022-11-25T12:39:03;2.93;;;2.63;;
12818;SDS011;6474;53.474;9.894;2022-11-25T12:41:35;2.67;;;2.47;;
12818;SDS011;6474;53.474;9.894;2022-11-25T12:44:09;4.17;;;2.73;;
12818;SDS011;6474;53.474;9.894;2022-11-25T12:46:44;4.10;;;2.93;;
12818;SDS011;6474;53.474;9.894;2022-11-25T12:49:15;3.83;;;2.93;;
12818;SDS011;6474;53.474;9.894;2022-11-25T12:51:49;5.17;;;2.70;;
12818;SDS011;6474;53.474;9.894;2022-11-25T12:54:32;7.20;;;3.73;;
12818;SDS011;6474;53.474;9.894;2022-11-25T12:57:30;3.83;;;2.67;;
12818;SDS011;6474;53.474;9.894;2022-11-25T13:00:19;7.90;;;2.50;;
12818;SDS011;6474;53.474;9.894;2022-11-25T13:03:18;8.03;;;2.17;;
12818;SDS011;6474;53.474;9.894;2022-11-25T13:06:09;6.97;;;2.00;;
12818;SDS011;6474;53.474;9.894;2022-11-25T13:08:53;6.80;;;1.97;;
12818;SDS011;6474;53.474;9.894;2022-11-25T13:11:47;2.57;;;2.47;;
12818;SDS011;6474;53.474;9.894;2022-11-25T13:14:38;5.10;;;2.30;;
12818;SDS011;6474;53.474;9.894;2022-11-25T13:17:22;1.83;;;1.83;;
12818;SDS011;6474;53.474;9.894;2022-11-25T13:23:05;2.40;;;2.00;;
12818;SDS011;6474;53.474;9.894;2022-11-25T13:25:36;8.07;;;2.23;;
12818;SDS011;6474;53.474;9.894;2022-11-25T13:28:05;1.63;;;1.60;;
12818;SDS011;6474;53.474;9.894;2022-11-25T13:30:54;4.93;;;1.63;;
12818;SDS011;6474;53.474;9.894;2022-11-25T13:33:53;7.23;;;1.70;;
12818;SDS011;6474;53.474;9.894;2022-11-25T13:36:42;10.93;;;1.80;;
12818;SDS011;6474;53.474;9.894;2022-11-25T13:39:13;3.53;;;2.37;;
12818;SDS011;6474;53.474;9.894;2022-11-25T13:41:45;4.57;;;2.60;;
12818;SDS011;6474;53.474;9.894;2022-11-25T13:44:19;3.63;;;1.73;;
12818;SDS011;6474;53.474;9.894;2022-11-25T13:46:53;2.07;;;1.97;;
12818;SDS011;6474;53.474;9.894;2022-11-25T13:49:27;3.23;;;1.83;;
12818;SDS011;6474;53.474;9.894;2022-11-25T13:52:01;5.87;;;1.83;;
12818;SDS011;6474;53.474;9.894;2022-11-25T13:54:34;4.53;;;1.80;;
12818;SDS011;6474;53.474;9.894;2022-11-25T14:00:04;2.43;;;1.53;;
12818;SDS011;6474;53.474;9.894;2022-11-25T14:02:35;2.80;;;2.10;;
12818;SDS011;6474;53.474;9.894;2022-11-25T14:08:20;1.97;;;1.97;;
12818;SDS011;6474;53.474;9.894;2022-11-25T14:14:02;6.27;;;2.50;;
12818;SDS011;6474;53.474;9.894;2022-11-25T14:16:45;4.93;;;2.57;;
12818;SDS011;6474;53.474;9.894;2022-11-25T14:19:40;3.40;;;2.87;;
12818;SDS011;6474;53.474;9.894;2022-11-25T14:25:18;2.97;;;2.77;;
12818;SDS011;6474;53.474;9.894;2022-11-25T14:27:50;2.40;;;2.30;;
12818;SDS011;6474;53.474;9.894;2022-11-25T14:30:29;5.47;;;2.13;;
12818;SDS011;6474;53.474;9.894;2022-11-25T14:32:57;2.83;;;2.37;;
12818;SDS011;6474;53.474;9.894;2022-11-25T14:35:31;4.67;;;2.40;;
12818;SDS011;6474;53.474;9.894;2022-11-25T14:38:11;2.83;;;2.60;;
12818;SDS011;6474;53.474;9.894;2022-11-25T14:40:43;2.30;;;2.13;;
12818;SDS011;6474;53.474;9.894;2022-11-25T14:43:21;10.77;;;3.30;;
12818;SDS011;6474;53.474;9.894;2022-11-25T14:48:37;3.33;;;3.03;;
12818;SDS011;6474;53.474;9.894;2022-11-25T14:51:05;2.43;;;2.37;;
12818;SDS011;6474;53.474;9.894;2022-11-25T14:53:37;8.33;;;2.83;;
12818;SDS011;6474;53.474;9.894;2022-11-25T14:56:13;2.60;;;2.50;;
12818;SDS011;6474;53.474;9.894;2022-11-25T14:58:45;4.03;;;3.70;;
12818;SDS011;6474;53.474;9.894;2022-11-25T15:01:16;8.03;;;3.50;;
12818;SDS011;6474;53.474;9.894;2022-11-25T15:03:46;3.07;;;2.97;;
12818;SDS011;6474;53.474;9.894;2022-11-25T15:06:14;6.20;;;3.43;;
12818;SDS011;6474;53.474;9.894;2022-11-25T15:08:52;11.83;;;3.47;;
12818;SDS011;6474;53.474;9.894;2022-11-25T15:11:24;7.83;;;3.43;;
12818;SDS011;6474;53.474;9.894;2022-11-25T15:13:57;4.07;;;3.77;;
12818;SDS011;6474;53.474;9.894;2022-11-25T15:16:30;4.47;;;3.20;;
12818;SDS011;6474;53.474;9.894;2022-11-25T15:19:00;7.00;;;2.40;;
12818;SDS011;6474;53.474;9.894;2022-11-25T15:21:30;3.47;;;2.80;;
12818;SDS011;6474;53.474;9.894;2022-11-25T15:24:21;3.13;;;2.37;;
12818;SDS011;6474;53.474;9.894;2022-11-25T15:26:50;7.97;;;4.23;;
12818;SDS011;6474;53.474;9.894;2022-11-25T15:29:20;3.13;;;2.87;;
12818;SDS011;6474;53.474;9.894;2022-11-25T15:31:49;3.53;;;3.33;;
12818;SDS011;6474;53.474;9.894;2022-11-25T15:34:18;7.80;;;3.23;;
12818;SDS011;6474;53.474;9.894;2022-11-25T15:36:48;9.87;;;3.27;;
12818;SDS011;6474;53.474;9.894;2022-11-25T15:39:24;6.53;;;3.00;;
12818;SDS011;6474;53.474;9.894;2022-11-25T15:41:55;2.97;;;2.77;;
12818;SDS011;6474;53.474;9.894;2022-11-25T15:44:31;7.10;;;3.73;;
12818;SDS011;6474;53.474;9.894;2022-11-25T15:47:02;7.33;;;3.87;;